Byers, CO (80103)

4:07 AM MDT on July 24, 2016 (GMT -0600)
Deer Trail Estates | | Change Station

Elev 5207 ft 39.61 °N, 104.04 °W | Updated 2 seconds ago

Scattered Clouds
Scattered Clouds
63.7 °F
Feels Like 63.7 °F
N
6.9
Wind Variable Wind from South
Gusts 6.9 mph

Today
High -- | Low -- °F
--% Chance of Precip.
Yesterday
High -- | Low -- °F
Precip. -- in
Pressure 29.85 in
Visibility 10.0 miles
Clouds Few 13000 ft
Scattered Clouds 22000 ft
Dew Point 51 °F
Humidity 64%
Rainfall 0.00 in
Snow Depth Not available.
5:49 AM 8:16 PM
Waning Gibbous, 77% visible
METAR KDEN 240953Z 20014KT 10SM FEW130 SCT220 21/10 A3014 RMK AO2 SLP108 T02060100
Pressure 29.85 in
Visibility 10.0 miles
Clouds Few 13000 ft
Scattered Clouds 22000 ft
Dew Point 51 °F
Humidity 64%
Rainfall 0.00 in
Snow Depth Not available.
5:49 AM 8:16 PM
Waning Gibbous, 77% visible
METAR KDEN 240953Z 20014KT 10SM FEW130 SCT220 21/10 A3014 RMK AO2 SLP108 T02060100

10-Day Weather Forecast

Almanac

Astronomy

Jul. 24, 2016 Rise Set
Actual Time
Civil Twilight
Nautical Twilight
Astronomical Twilight
Moon
Length of Visible Light
Length of Day
Tomorrow will be .
, % of the Moon is Illuminated

Today's Extremes

State Highs State Lows

Community

WunderPhotos

Upload Photos

1,927,040 photos uploaded!

WunderBlog® & News

Nearby

Air Quality

  Air Quality AQ Index Pollutant
Not available.

Snow Depth

Station Depth Elevation

Earthquake Activity

City Distance Mag. Time & Date
Minimum magnitude displayed is 2.5.

Coastal Water Temperatures

Place Temperature

Stations

Nearby Weather Stations

Station Location Temp. Windchill Dew Point Humidity Wind Precip. Elev Updated Type
                   

Watches & Warnings

There are currently no watches in effect.